createdAt,value
2023-05-24T00:02:32.285Z,2.33
2023-05-24T00:05:37.653Z,2.65
2023-05-24T00:08:39.516Z,2.35
2023-05-24T00:11:41.315Z,2.13
2023-05-24T00:14:43.005Z,2.40
2023-05-24T00:17:44.623Z,2.60
2023-05-24T00:20:46.456Z,1.90
2023-05-24T00:23:48.521Z,2.10
2023-05-24T00:26:50.606Z,1.98
2023-05-24T00:29:52.064Z,2.50
2023-05-24T00:32:53.722Z,2.22
2023-05-24T00:35:58.037Z,2.10
2023-05-24T00:38:59.883Z,2.13
2023-05-24T00:42:02.317Z,2.20
2023-05-24T00:45:04.283Z,2.10
2023-05-24T00:48:06.091Z,2.28
2023-05-24T00:51:07.871Z,2.05
2023-05-24T00:54:13.937Z,2.20
2023-05-24T00:57:15.954Z,2.28
2023-05-24T01:00:17.820Z,2.00
2023-05-24T01:03:19.519Z,1.90
2023-05-24T01:06:25.844Z,1.73
2023-05-24T01:09:40.637Z,2.20
2023-05-24T01:13:04.304Z,2.28
2023-05-24T01:19:44.735Z,2.28
2023-05-24T01:23:14.372Z,1.92
2023-05-24T01:26:42.474Z,1.92
2023-05-24T01:29:44.514Z,2.30
2023-05-24T01:32:46.146Z,2.40
2023-05-24T01:35:48.003Z,1.83
2023-05-24T01:38:51.001Z,2.28
2023-05-24T01:42:24.876Z,2.22
2023-05-24T01:45:40.253Z,2.35
2023-05-24T01:49:12.689Z,2.42
2023-05-24T01:52:19.660Z,2.30
2023-05-24T01:55:22.747Z,1.80
2023-05-24T01:58:26.370Z,1.77
2023-05-24T02:01:28.294Z,2.60
2023-05-24T02:04:33.025Z,2.55
2023-05-24T02:10:51.304Z,2.08
2023-05-24T02:13:53.087Z,1.92
2023-05-24T02:16:58.845Z,2.28
2023-05-24T02:20:00.877Z,2.17
2023-05-24T02:23:04.384Z,2.25
2023-05-24T02:26:06.390Z,3.05
2023-05-24T02:29:07.925Z,1.90
2023-05-24T02:32:09.548Z,2.20
2023-05-24T02:35:11.057Z,2.50
2023-05-24T02:38:13.364Z,3.00
2023-05-24T02:41:17.967Z,3.60
2023-05-24T02:44:19.509Z,2.67
2023-05-24T02:47:21.113Z,2.53
2023-05-24T02:50:22.704Z,2.80
2023-05-24T02:53:24.482Z,2.45
2023-05-24T02:56:26.589Z,2.45
2023-05-24T02:59:29.095Z,3.67
2023-05-24T03:02:34.028Z,2.78
2023-05-24T03:05:36.314Z,2.65
2023-05-24T03:08:37.993Z,2.55
2023-05-24T03:11:40.130Z,2.67
2023-05-24T03:14:41.739Z,2.40
2023-05-24T03:17:43.342Z,2.65
2023-05-24T03:20:46.424Z,3.20
2023-05-24T03:23:48.352Z,3.58
2023-05-24T03:26:50.076Z,2.60
2023-05-24T03:29:52.311Z,3.60
2023-05-24T03:32:57.219Z,3.00
2023-05-24T03:35:59.025Z,2.60
2023-05-24T03:39:00.781Z,3.00
2023-05-24T03:42:02.490Z,3.28
2023-05-24T03:45:05.691Z,2.85
2023-05-24T03:48:07.175Z,2.55
2023-05-24T03:51:09.331Z,3.10
2023-05-24T03:54:11.052Z,2.80
2023-05-24T03:57:12.674Z,3.33
2023-05-24T04:00:15.224Z,2.90
2023-05-24T04:03:20.406Z,3.03
2023-05-24T04:06:30.724Z,2.38
2023-05-24T04:09:35.242Z,2.75
2023-05-24T04:15:41.881Z,2.38
2023-05-24T04:18:46.305Z,2.47
2023-05-24T04:21:48.288Z,1.50
2023-05-24T04:24:50.011Z,2.90
2023-05-24T04:27:51.510Z,2.10
2023-05-24T04:30:53.746Z,1.75
2023-05-24T04:33:57.230Z,2.42
2023-05-24T04:40:00.432Z,2.08
2023-05-24T04:43:02.672Z,2.42
2023-05-24T04:46:04.371Z,2.67
2023-05-24T04:49:08.287Z,2.63
2023-05-24T04:52:09.737Z,2.70
2023-05-24T04:55:11.346Z,3.10
2023-05-24T04:58:12.979Z,3.38
2023-05-24T05:01:14.575Z,2.95
2023-05-24T05:04:16.650Z,2.45
2023-05-24T05:07:18.155Z,3.38
2023-05-24T05:10:21.783Z,3.50
2023-05-24T05:13:24.561Z,3.60
2023-05-24T05:16:26.118Z,2.75
2023-05-24T05:19:27.679Z,3.22
2023-05-24T05:22:31.165Z,3.17
2023-05-24T05:25:33.271Z,3.15
2023-05-24T05:28:35.519Z,3.28
2023-05-24T05:31:37.045Z,3.20
2023-05-24T05:34:38.624Z,2.90
2023-05-24T05:37:40.088Z,3.30
2023-05-24T05:40:41.811Z,2.70
2023-05-24T05:43:43.404Z,3.10
2023-05-24T05:46:46.236Z,2.65
2023-05-24T05:49:47.866Z,2.97
2023-05-24T05:52:51.145Z,3.45
2023-05-24T05:58:54.648Z,3.40
2023-05-24T06:01:56.217Z,3.08
2023-05-24T06:04:58.022Z,4.15
2023-05-24T06:07:59.836Z,2.95
2023-05-24T06:11:01.932Z,2.80
2023-05-24T06:14:03.474Z,2.50
2023-05-24T06:17:06.074Z,2.97
2023-05-24T06:20:10.227Z,2.70
2023-05-24T06:23:12.251Z,2.80
2023-05-24T06:26:13.748Z,3.20
2023-05-24T06:29:15.454Z,3.42
2023-05-24T06:32:16.899Z,3.20
2023-05-24T06:35:18.453Z,2.83
2023-05-24T06:38:19.948Z,3.30
2023-05-24T06:41:21.522Z,2.80
2023-05-24T06:44:25.349Z,2.97
2023-05-24T06:47:27.042Z,2.40
2023-05-24T06:50:28.935Z,2.95
2023-05-24T06:53:31.255Z,3.17
2023-05-24T06:56:33.062Z,2.70
2023-05-24T06:59:34.641Z,3.35
2023-05-24T07:02:39.388Z,3.10
2023-05-24T07:05:40.944Z,2.78
2023-05-24T07:08:42.450Z,2.63
2023-05-24T07:11:44.171Z,2.45
2023-05-24T07:14:45.942Z,2.70
2023-05-24T07:17:48.252Z,2.70
2023-05-24T07:20:50.084Z,2.50
2023-05-24T07:23:51.961Z,2.75
2023-05-24T07:26:59.487Z,3.20
2023-05-24T07:30:01.077Z,3.33
2023-05-24T07:33:02.978Z,2.53
2023-05-24T07:36:08.801Z,2.88
2023-05-24T07:39:10.329Z,3.50
2023-05-24T07:42:11.823Z,3.28
2023-05-24T07:45:14.036Z,3.72
2023-05-24T07:48:15.826Z,4.15
2023-05-24T07:51:20.289Z,2.38
2023-05-24T07:54:21.846Z,3.20
2023-05-24T07:57:23.745Z,2.97
2023-05-24T08:00:25.802Z,2.97
2023-05-24T08:03:27.440Z,3.42
2023-05-24T08:06:29.501Z,3.67
2023-05-24T08:09:36.916Z,2.88
2023-05-24T08:12:38.598Z,3.22
2023-05-24T08:15:40.338Z,2.42
2023-05-24T08:18:42.214Z,3.20
2023-05-24T08:21:43.730Z,2.72
2023-05-24T08:24:47.193Z,3.05
2023-05-24T08:30:50.112Z,2.47
2023-05-24T08:33:51.965Z,3.22
2023-05-24T08:36:53.715Z,3.17
2023-05-24T08:39:56.016Z,3.28
2023-05-24T08:43:01.293Z,3.13
2023-05-24T08:46:04.156Z,3.15
2023-05-24T08:49:07.462Z,3.17
2023-05-24T08:58:16.810Z,3.58
2023-05-24T09:01:18.489Z,2.90
2023-05-24T09:04:22.580Z,3.40
2023-05-24T09:07:24.691Z,3.30
2023-05-24T09:10:45.163Z,2.80
2023-05-24T09:13:51.459Z,3.22
2023-05-24T09:16:53.665Z,3.22
2023-05-24T09:19:55.650Z,3.40
2023-05-24T09:22:59.075Z,3.50
2023-05-24T09:29:09.351Z,4.40
2023-05-24T09:32:14.298Z,3.33
2023-05-24T09:35:16.230Z,3.50
2023-05-24T09:38:19.296Z,3.17
2023-05-24T09:41:20.809Z,4.13
2023-05-24T09:44:28.822Z,2.95
2023-05-24T09:47:31.819Z,3.70
2023-05-24T09:50:33.482Z,3.15
2023-05-24T09:53:36.356Z,3.58
2023-05-24T09:56:41.527Z,3.78
2023-05-24T09:59:44.271Z,3.70
2023-05-24T10:02:53.296Z,3.28
2023-05-24T10:05:56.601Z,3.70
2023-05-24T10:08:58.998Z,3.13
2023-05-24T10:12:05.630Z,3.07
2023-05-24T10:15:08.086Z,3.22
2023-05-24T10:18:12.229Z,3.43
2023-05-24T10:21:17.420Z,3.20
2023-05-24T10:27:25.567Z,3.47
2023-05-24T10:30:34.462Z,3.35
2023-05-24T10:33:40.051Z,3.50
2023-05-24T10:36:41.591Z,3.30
2023-05-24T10:39:43.367Z,2.65
2023-05-24T10:42:45.677Z,3.90
2023-05-24T10:45:51.242Z,2.80
2023-05-24T10:49:01.038Z,3.60
2023-05-24T10:52:08.105Z,3.33
2023-05-24T10:55:11.716Z,3.50
2023-05-24T10:58:13.189Z,3.80
2023-05-24T11:01:26.897Z,2.90
2023-05-24T11:04:34.052Z,3.88
2023-05-24T11:07:42.807Z,4.43
2023-05-24T11:10:45.269Z,3.75
2023-05-24T11:13:48.422Z,3.67
2023-05-24T11:16:51.915Z,3.20
2023-05-24T11:19:55.599Z,3.30
2023-05-24T11:22:57.274Z,4.22
2023-05-24T11:25:59.027Z,3.63
2023-05-24T11:29:09.979Z,3.42
2023-05-24T11:32:16.793Z,2.92
2023-05-24T11:35:23.055Z,3.40
2023-05-24T11:38:26.076Z,3.58
2023-05-24T11:41:28.481Z,3.70
2023-05-24T11:44:32.090Z,2.97
2023-05-24T11:47:42.929Z,4.07
2023-05-24T11:50:50.550Z,3.65
2023-05-24T11:53:54.522Z,4.22
2023-05-24T11:56:56.442Z,3.55
2023-05-24T11:59:59.351Z,3.42
2023-05-24T12:03:05.206Z,3.60
2023-05-24T12:06:09.842Z,3.10
2023-05-24T12:09:15.137Z,3.65
2023-05-24T12:12:16.652Z,3.60
2023-05-24T12:15:18.875Z,4.00
2023-05-24T12:18:21.570Z,3.88
2023-05-24T12:21:25.498Z,3.33
2023-05-24T12:24:27.913Z,3.63
2023-05-24T12:27:31.417Z,3.47
2023-05-24T12:30:32.888Z,2.70
2023-05-24T12:33:34.456Z,2.60
2023-05-24T12:36:36.623Z,2.95
2023-05-24T12:44:41.929Z,2.80
2023-05-24T12:47:45.568Z,3.72
2023-05-24T12:50:48.088Z,3.25
2023-05-24T12:53:49.550Z,3.63
2023-05-24T12:56:55.621Z,2.70
2023-05-24T12:59:57.924Z,3.20
2023-05-24T13:03:00.076Z,3.33
2023-05-24T13:06:01.889Z,3.10
2023-05-24T13:09:04.298Z,3.20
2023-05-24T13:12:06.376Z,2.57
2023-05-24T13:15:08.975Z,2.08
2023-05-24T13:18:10.537Z,2.50
2023-05-24T13:21:12.699Z,2.42
2023-05-24T13:24:16.215Z,2.35
2023-05-24T13:27:19.784Z,3.35
2023-05-24T13:30:27.493Z,2.45
2023-05-24T13:33:29.341Z,2.25
2023-05-24T13:36:30.847Z,2.45
2023-05-24T13:39:32.397Z,2.83
2023-05-24T13:42:33.980Z,2.58
2023-05-24T13:45:36.323Z,2.53
2023-05-24T13:48:37.957Z,2.53
2023-05-24T13:51:40.389Z,2.00
2023-05-24T13:54:42.530Z,3.10
2023-05-24T13:57:51.567Z,2.40
2023-05-24T14:00:54.266Z,2.00
2023-05-24T14:03:55.757Z,2.17
2023-05-24T14:07:00.452Z,1.65
2023-05-24T14:10:02.693Z,2.45
2023-05-24T14:16:13.191Z,2.47
2023-05-24T14:19:17.017Z,2.78
2023-05-24T14:22:18.833Z,1.90
2023-05-24T14:25:20.399Z,2.17
2023-05-24T14:28:22.177Z,1.88
2023-05-24T14:31:24.434Z,1.60
2023-05-24T14:34:25.916Z,2.22
2023-05-24T14:37:28.038Z,2.47
2023-05-24T14:40:31.540Z,2.50
2023-05-24T14:43:33.236Z,2.67
2023-05-24T14:46:34.905Z,1.70
2023-05-24T14:49:36.508Z,1.58
2023-05-24T14:52:38.014Z,1.95
2023-05-24T14:55:41.742Z,2.40
2023-05-24T14:58:43.914Z,2.30
2023-05-24T15:01:45.575Z,2.30
2023-05-24T15:04:47.603Z,2.20
2023-05-24T15:07:49.190Z,1.90
2023-05-24T15:10:51.006Z,2.05
2023-05-24T15:13:55.545Z,2.70
2023-05-24T15:16:57.335Z,2.45
2023-05-24T15:19:59.790Z,2.30
2023-05-24T15:23:01.302Z,2.90
2023-05-24T15:26:03.271Z,2.47
2023-05-24T15:29:05.121Z,1.80
2023-05-24T15:32:07.177Z,2.53
2023-05-24T15:35:09.387Z,2.00
2023-05-24T15:38:10.936Z,3.03
2023-05-24T15:41:12.421Z,1.80
2023-05-24T15:44:13.962Z,2.38
2023-05-24T15:47:15.933Z,2.33
2023-05-24T15:50:19.149Z,2.20
2023-05-24T15:53:25.526Z,2.10
2023-05-24T15:56:27.626Z,1.70
2023-05-24T15:59:29.340Z,1.85
2023-05-24T16:02:31.324Z,2.38
2023-05-24T16:05:32.940Z,2.65
2023-05-24T16:08:34.495Z,2.10
2023-05-24T16:11:36.239Z,2.10
2023-05-24T16:14:37.749Z,1.83
2023-05-24T16:17:39.293Z,1.88
2023-05-24T16:20:41.098Z,1.88
2023-05-24T16:23:43.158Z,1.80
2023-05-24T16:26:44.719Z,1.92
2023-05-24T16:29:46.870Z,1.65
2023-05-24T16:32:48.435Z,2.10
2023-05-24T16:35:55.198Z,2.17
2023-05-24T16:38:56.804Z,1.63
2023-05-24T16:42:00.303Z,1.58
2023-05-24T16:45:03.111Z,1.85
2023-05-24T16:48:06.162Z,1.83
2023-05-24T16:51:07.869Z,1.67
2023-05-24T16:54:09.554Z,2.75
2023-05-24T16:57:11.320Z,1.60
2023-05-24T17:00:15.177Z,1.92
2023-05-24T17:03:16.949Z,1.88
2023-05-24T17:06:18.493Z,2.25
2023-05-24T17:09:22.115Z,1.60
2023-05-24T17:12:23.653Z,1.80
2023-05-24T17:15:25.100Z,1.90
2023-05-24T17:18:29.580Z,2.20
2023-05-24T17:21:31.441Z,1.60
2023-05-24T17:24:32.999Z,2.05
2023-05-24T17:27:34.657Z,1.63
2023-05-24T17:30:36.646Z,1.58
2023-05-24T17:33:38.221Z,2.20
2023-05-24T17:36:39.959Z,2.10
2023-05-24T17:39:41.452Z,1.70
2023-05-24T17:42:43.170Z,1.30
2023-05-24T17:45:45.040Z,2.30
2023-05-24T17:48:47.740Z,1.75
2023-05-24T17:51:49.361Z,1.70
2023-05-24T17:54:50.922Z,1.33
2023-05-24T17:57:52.729Z,1.52
2023-05-24T18:00:54.277Z,1.60
2023-05-24T18:03:55.750Z,1.23
2023-05-24T18:06:57.288Z,1.23
2023-05-24T18:10:00.328Z,1.30
2023-05-24T18:13:02.523Z,1.50
2023-05-24T18:16:04.219Z,1.73
2023-05-24T18:19:05.929Z,1.30
2023-05-24T18:22:07.840Z,1.17
2023-05-24T18:25:09.946Z,1.52
2023-05-24T18:28:14.761Z,1.42
2023-05-24T18:31:16.376Z,1.60
2023-05-24T18:34:17.916Z,2.03
2023-05-24T18:37:22.902Z,1.20
2023-05-24T18:40:24.703Z,1.55
2023-05-24T18:43:26.215Z,1.40
2023-05-24T18:46:29.051Z,1.45
2023-05-24T18:49:32.787Z,1.40
2023-05-24T18:52:34.771Z,1.80
2023-05-24T18:55:42.661Z,1.10
2023-05-24T18:58:49.393Z,1.60
2023-05-24T19:01:52.134Z,1.52
2023-05-24T19:04:53.882Z,1.20
2023-05-24T19:07:55.621Z,1.65
2023-05-24T19:10:57.278Z,1.90
2023-05-24T19:13:58.861Z,1.35
2023-05-24T19:17:00.614Z,1.50
2023-05-24T19:20:02.905Z,2.35
2023-05-24T19:23:04.813Z,1.50
2023-05-24T19:26:07.001Z,1.50
2023-05-24T19:29:08.974Z,1.35
2023-05-24T19:32:11.631Z,1.75
2023-05-24T19:35:13.514Z,1.58
2023-05-24T19:38:21.476Z,1.63
2023-05-24T19:41:23.049Z,1.60
2023-05-24T19:44:24.740Z,1.50
2023-05-24T19:47:26.426Z,1.58
2023-05-24T19:50:31.026Z,1.45
2023-05-24T19:53:32.931Z,1.98
2023-05-24T19:56:37.822Z,1.00
2023-05-24T19:59:39.367Z,1.20
2023-05-24T20:02:41.171Z,1.30
2023-05-24T20:05:42.994Z,1.77
2023-05-24T20:08:45.767Z,1.30
2023-05-24T20:11:47.608Z,1.00
2023-05-24T20:14:51.115Z,1.27
2023-05-24T20:20:57.581Z,1.20
2023-05-24T20:23:59.174Z,1.70
2023-05-24T20:27:00.776Z,0.98
2023-05-24T20:30:02.783Z,1.50
2023-05-24T20:33:04.592Z,1.02
2023-05-24T20:36:06.781Z,1.40
2023-05-24T20:39:08.955Z,1.15
2023-05-24T20:42:11.332Z,1.55
2023-05-24T20:45:12.889Z,5.90
2023-05-24T20:48:14.592Z,3.25
2023-05-24T20:51:16.208Z,3.88
2023-05-24T20:54:17.964Z,6.03
2023-05-24T20:57:23.262Z,3.80
2023-05-24T21:00:25.547Z,2.58
2023-05-24T21:03:28.564Z,2.10
2023-05-24T21:09:36.116Z,2.30
2023-05-24T21:12:40.305Z,1.90
2023-05-24T21:15:44.600Z,2.00
2023-05-24T21:18:47.420Z,1.92
2023-05-24T21:21:48.981Z,2.30
2023-05-24T21:24:50.541Z,2.60
2023-05-24T21:27:52.028Z,3.17
2023-05-24T21:30:53.580Z,1.90
2023-05-24T21:33:55.248Z,1.95
2023-05-24T21:36:56.801Z,4.15
2023-05-24T21:39:58.433Z,2.22
2023-05-24T21:42:59.944Z,1.85
2023-05-24T21:46:01.419Z,1.98
2023-05-24T21:49:03.088Z,1.77
2023-05-24T21:52:04.868Z,1.50
2023-05-24T21:55:06.709Z,1.52
2023-05-24T21:58:08.292Z,2.08
2023-05-24T22:01:10.895Z,1.63
2023-05-24T22:04:12.543Z,1.40
2023-05-24T22:07:14.173Z,1.42
2023-05-24T22:10:15.731Z,1.52
2023-05-24T22:13:17.247Z,1.38
2023-05-24T22:16:18.799Z,1.50
2023-05-24T22:19:35.745Z,1.30
2023-05-24T22:22:48.692Z,1.80
2023-05-24T22:25:50.167Z,1.50
2023-05-24T22:28:52.572Z,1.50
2023-05-24T22:31:54.741Z,1.60
2023-05-24T22:34:56.258Z,1.70
2023-05-24T22:37:57.805Z,1.40
2023-05-24T22:40:59.324Z,1.70
2023-05-24T22:44:01.215Z,1.42
2023-05-24T22:47:03.180Z,1.52
2023-05-24T22:50:05.907Z,1.50
2023-05-24T22:53:09.163Z,1.10
2023-05-24T22:56:10.724Z,2.28
2023-05-24T22:59:13.057Z,1.23
2023-05-24T23:02:14.791Z,1.50
2023-05-24T23:05:16.522Z,1.50
2023-05-24T23:08:18.141Z,1.40
2023-05-24T23:11:19.701Z,1.20
2023-05-24T23:14:24.895Z,1.17
2023-05-24T23:17:26.782Z,1.23
2023-05-24T23:20:29.440Z,2.53
2023-05-24T23:23:31.171Z,1.85
2023-05-24T23:26:32.760Z,1.52
2023-05-24T23:29:34.752Z,1.20
2023-05-24T23:32:36.360Z,1.33
2023-05-24T23:35:39.514Z,1.27
2023-05-24T23:38:41.040Z,1.67
2023-05-24T23:41:42.644Z,1.55
2023-05-24T23:44:44.158Z,1.42
2023-05-24T23:47:48.721Z,1.23
2023-05-24T23:50:54.276Z,1.65
2023-05-24T23:53:56.058Z,1.40
2023-05-24T23:56:57.656Z,1.75
2023-05-24T23:59:59.672Z,1.90
